createdAt,value
2017-10-02T00:00:58.681Z,1015.53
2017-10-02T00:02:20.801Z,1015.55
2017-10-02T00:03:42.912Z,1015.6
2017-10-02T00:05:04.900Z,1015.52
2017-10-02T00:06:27.417Z,1015.51
2017-10-02T00:07:49.549Z,1015.48
2017-10-02T00:09:12.023Z,1015.57
2017-10-02T00:10:33.863Z,1015.55
2017-10-02T00:11:56.053Z,1015.61
2017-10-02T00:13:17.222Z,1015.58
2017-10-02T00:14:39.732Z,1015.59
2017-10-02T00:16:01.641Z,1015.58
2017-10-02T00:17:23.787Z,1015.55
2017-10-02T00:18:45.582Z,1015.51
2017-10-02T00:20:07.445Z,1015.47
2017-10-02T00:21:29.348Z,1015.51
2017-10-02T00:22:52.210Z,1015.52
2017-10-02T00:24:13.716Z,1015.46
2017-10-02T00:25:35.261Z,1015.44
2017-10-02T00:26:57.153Z,1015.35
2017-10-02T00:28:19.577Z,1015.32
2017-10-02T00:29:41.396Z,1015.36
2017-10-02T00:31:03.533Z,1015.31
2017-10-02T00:32:25.434Z,1015.26
2017-10-02T00:33:47.964Z,1015.21
2017-10-02T00:35:10.404Z,1015.19
2017-10-02T00:36:32.524Z,1015.13
2017-10-02T00:37:54.329Z,1015.11
2017-10-02T00:39:16.950Z,1015.09
2017-10-02T00:40:38.471Z,1015
2017-10-02T00:42:00.635Z,1015
2017-10-02T00:43:22.515Z,1014.96
2017-10-02T00:44:44.693Z,1014.92
2017-10-02T00:46:07.153Z,1014.91
2017-10-02T00:47:29.043Z,1014.87
2017-10-02T00:48:50.848Z,1014.83
2017-10-02T00:50:12.660Z,1014.89
2017-10-02T00:51:35.123Z,1014.7
2017-10-02T00:52:56.931Z,1014.68
2017-10-02T00:54:18.496Z,1014.58
2017-10-02T00:55:40.315Z,1014.55
2017-10-02T00:57:01.823Z,1014.47
2017-10-02T00:58:23.674Z,1014.47
2017-10-02T00:59:45.925Z,1014.32
2017-10-02T01:01:07.455Z,1014.26
2017-10-02T01:02:29.600Z,1014.22
2017-10-02T01:03:52.083Z,1014.17
2017-10-02T01:05:14.201Z,1014.18
2017-10-02T01:06:36.327Z,1014.13
2017-10-02T01:07:57.506Z,1014.1
2017-10-02T01:09:19.324Z,1014.12
2017-10-02T01:10:41.456Z,1014.06
2017-10-02T01:12:03.633Z,1014.07
2017-10-02T01:13:25.133Z,1014.07
2017-10-02T01:14:46.603Z,1014.06
2017-10-02T01:16:07.865Z,1013.96
2017-10-02T01:17:29.962Z,1013.93
2017-10-02T01:18:51.776Z,1013.94
2017-10-02T01:20:13.693Z,1013.95
2017-10-02T01:21:35.564Z,1014.01
2017-10-02T01:22:58.107Z,1014.01
2017-10-02T01:24:20.693Z,1014.04
2017-10-02T01:25:42.956Z,1014.04
2017-10-02T01:27:04.815Z,1014.04
2017-10-02T01:28:26.897Z,1014.06
2017-10-02T01:29:49.356Z,1014.06
2017-10-02T01:31:11.514Z,1014.04
2017-10-02T01:32:33.653Z,1014.11
2017-10-02T01:33:55.455Z,1014.12
2017-10-02T01:35:16.947Z,1014.1
2017-10-02T01:36:38.882Z,1014.05
2017-10-02T01:38:01.104Z,1014.11
2017-10-02T01:39:23.233Z,1014.11
2017-10-02T01:40:45.366Z,1014.1
2017-10-02T01:42:07.494Z,1014.11
2017-10-02T01:43:29.944Z,1014.13
2017-10-02T01:44:52.453Z,1014.18
2017-10-02T01:46:14.274Z,1014.25
2017-10-02T01:47:36.465Z,1014.27
2017-10-02T01:48:57.999Z,1014.29
2017-10-02T01:50:19.978Z,1014.27
2017-10-02T01:51:41.468Z,1014.3
2017-10-02T01:53:02.968Z,1014.27
2017-10-02T01:54:24.793Z,1014.25
2017-10-02T01:55:46.928Z,1014.21
2017-10-02T01:57:09.073Z,1014.2
2017-10-02T01:58:30.649Z,1014.22
2017-10-02T01:59:52.133Z,1014.17
2017-10-02T02:01:13.953Z,1014.17
2017-10-02T02:02:35.440Z,1014.1
2017-10-02T02:03:57.271Z,1014.11
2017-10-02T02:05:19.215Z,1014.07
2017-10-02T02:06:41.407Z,1014.06
2017-10-02T02:08:03.545Z,1013.99
2017-10-02T02:09:25.696Z,1013.98
2017-10-02T02:10:47.513Z,1013.95
2017-10-02T02:12:09.633Z,1013.91
2017-10-02T02:13:31.162Z,1013.93
2017-10-02T02:14:52.660Z,1013.9
2017-10-02T02:16:14.503Z,1013.86
2017-10-02T02:17:36.963Z,1013.88
2017-10-02T02:18:58.788Z,1013.8
2017-10-02T02:20:20.933Z,1013.78
2017-10-02T02:21:42.744Z,1013.77
2017-10-02T02:23:05.573Z,1013.8
2017-10-02T02:24:27.061Z,1013.73
2017-10-02T02:25:49.504Z,1013.73
2017-10-02T02:27:11.960Z,1013.76
2017-10-02T02:28:34.127Z,1013.78
2017-10-02T02:29:56.266Z,1013.7
2017-10-02T02:31:18.134Z,1013.73
2017-10-02T02:32:39.634Z,1013.7
2017-10-02T02:34:01.780Z,1013.72
2017-10-02T02:35:23.706Z,1013.67
2017-10-02T02:36:45.584Z,1013.65
2017-10-02T02:38:07.702Z,1013.61
2017-10-02T02:39:29.902Z,1013.6
2017-10-02T02:40:51.731Z,1013.55
2017-10-02T02:42:13.923Z,1013.51
2017-10-02T02:43:36.376Z,1013.51
2017-10-02T02:44:58.626Z,1013.53
2017-10-02T02:46:20.507Z,1013.49
2017-10-02T02:47:42.383Z,1013.44
2017-10-02T02:49:04.205Z,1013.39
2017-10-02T02:50:26.673Z,1013.4
2017-10-02T02:51:48.814Z,1013.4
2017-10-02T02:53:10.647Z,1013.4
2017-10-02T02:54:32.794Z,1013.5
2017-10-02T02:55:55.303Z,1013.48
2017-10-02T02:57:17.109Z,1013.48
2017-10-02T02:58:38.627Z,1013.43
2017-10-02T03:00:00.804Z,1013.43
2017-10-02T03:01:22.336Z,1013.44
2017-10-02T03:02:44.529Z,1013.44
2017-10-02T03:04:06.682Z,1013.4
2017-10-02T03:05:28.504Z,1013.35
2017-10-02T03:06:50.660Z,1013.34
2017-10-02T03:08:13.123Z,1013.33
2017-10-02T03:09:34.632Z,1013.29
2017-10-02T03:10:56.413Z,1013.31
2017-10-02T03:12:18.884Z,1013.28
2017-10-02T03:13:41.033Z,1013.28
2017-10-02T03:15:03.162Z,1013.29
2017-10-02T03:16:25.390Z,1013.28
2017-10-02T03:17:47.166Z,1013.21
2017-10-02T03:19:09.001Z,1013.19
2017-10-02T03:20:31.252Z,1013.12
2017-10-02T03:21:52.743Z,1013.18
2017-10-02T03:23:14.895Z,1013.16
2017-10-02T03:24:37.345Z,1013.16
2017-10-02T03:25:58.843Z,1013.2
2017-10-02T03:27:21.303Z,1013.14
2017-10-02T03:28:43.482Z,1013.07
2017-10-02T03:30:05.963Z,1013.1
2017-10-02T03:31:28.450Z,1013.05
2017-10-02T03:32:50.909Z,1013
2017-10-02T03:34:12.682Z,1012.99
2017-10-02T03:35:34.496Z,1012.92
2017-10-02T03:36:56.628Z,1012.89
2017-10-02T03:38:18.444Z,1012.89
2017-10-02T03:39:41.270Z,1012.82
2017-10-02T03:41:02.752Z,1012.77
2017-10-02T03:42:24.583Z,1012.73
2017-10-02T03:43:46.070Z,1012.7
2017-10-02T03:45:08.862Z,1012.63
2017-10-02T03:46:31.001Z,1012.58
2017-10-02T03:47:53.133Z,1012.54
2017-10-02T03:49:14.957Z,1012.53
2017-10-02T03:50:37.142Z,1012.46
2017-10-02T03:51:59.001Z,1012.4
2017-10-02T03:53:21.144Z,1012.41
2017-10-02T03:54:42.965Z,1012.36
2017-10-02T03:56:05.456Z,1012.36
2017-10-02T03:57:27.263Z,1012.35
2017-10-02T03:58:49.083Z,1012.33
2017-10-02T04:00:11.243Z,1012.32
2017-10-02T04:01:33.138Z,1012.32
2017-10-02T04:02:55.115Z,1012.27
2017-10-02T04:04:16.960Z,1012.35
2017-10-02T04:05:39.106Z,1012.26
2017-10-02T04:07:01.701Z,1012.26
2017-10-02T04:08:23.544Z,1012.16
2017-10-02T04:09:45.805Z,1012.2
2017-10-02T04:11:07.943Z,1012.16
2017-10-02T04:12:29.769Z,1012.18
2017-10-02T04:13:51.282Z,1012.17
2017-10-02T04:15:13.464Z,1012.13
2017-10-02T04:16:35.911Z,1012.11
2017-10-02T04:17:58.032Z,1012.05
2017-10-02T04:19:20.496Z,1012.06
2017-10-02T04:20:42.632Z,1012.03
2017-10-02T04:22:04.138Z,1011.98
2017-10-02T04:23:26.721Z,1011.97
2017-10-02T04:24:48.915Z,1011.96
2017-10-02T04:26:10.766Z,1011.99
2017-10-02T04:27:32.697Z,1012.03
2017-10-02T04:28:54.824Z,1012.02
2017-10-02T04:30:17.061Z,1012.06
2017-10-02T04:31:38.612Z,1012.03
2017-10-02T04:33:01.169Z,1012.03
2017-10-02T04:34:23.314Z,1012.02
2017-10-02T04:35:45.112Z,1012.02
2017-10-02T04:37:07.243Z,1011.93
2017-10-02T04:38:29.083Z,1011.94
2017-10-02T04:39:51.292Z,1012
2017-10-02T04:41:13.093Z,1011.94
2017-10-02T04:42:34.923Z,1011.9
2017-10-02T04:43:57.385Z,1011.89
2017-10-02T04:45:19.564Z,1011.9
2017-10-02T04:46:41.365Z,1011.91
2017-10-02T04:48:03.185Z,1011.89
2017-10-02T04:49:25.342Z,1011.89
2017-10-02T04:50:47.553Z,1011.82
2017-10-02T04:52:09.373Z,1011.82
2017-10-02T04:53:31.490Z,1011.79
2017-10-02T04:54:52.993Z,1011.72
2017-10-02T04:56:15.481Z,1011.7
2017-10-02T04:57:37.615Z,1011.75
2017-10-02T04:59:00.113Z,1011.75
2017-10-02T05:00:22.234Z,1011.65
2017-10-02T05:01:44.020Z,1011.65
2017-10-02T05:03:06.683Z,1011.57
2017-10-02T05:04:28.175Z,1011.65
2017-10-02T05:05:49.974Z,1011.63
2017-10-02T05:07:12.143Z,1011.63
2017-10-02T05:08:34.065Z,1011.55
2017-10-02T05:09:56.202Z,1011.56
2017-10-02T05:11:18.130Z,1011.49
2017-10-02T05:12:40.613Z,1011.51
2017-10-02T05:14:02.754Z,1011.56
2017-10-02T05:15:24.863Z,1011.53
2017-10-02T05:16:46.697Z,1011.47
2017-10-02T05:18:09.543Z,1011.57
2017-10-02T05:19:32.201Z,1011.53
2017-10-02T05:20:54.717Z,1011.35
2017-10-02T05:22:16.212Z,1011.34
2017-10-02T05:23:38.343Z,1011.45
2017-10-02T05:25:00.880Z,1011.42
2017-10-02T05:26:22.669Z,1011.43
2017-10-02T05:27:44.463Z,1011.36
2017-10-02T05:29:06.922Z,1011.34
2017-10-02T05:30:28.734Z,1011.32
2017-10-02T05:31:50.565Z,1011.24
2017-10-02T05:33:13.020Z,1011.27
2017-10-02T05:34:35.085Z,1011.23
2017-10-02T05:35:56.564Z,1011.27
2017-10-02T05:37:18.382Z,1011.22
2017-10-02T05:38:39.562Z,1011.16
2017-10-02T05:40:02.373Z,1011.06
2017-10-02T05:41:24.546Z,1011.07
2017-10-02T05:42:46.973Z,1010.99
2017-10-02T05:44:08.453Z,1010.95
2017-10-02T05:45:31.593Z,1010.88
2017-10-02T05:46:52.863Z,1010.99
2017-10-02T05:48:14.374Z,1011.03
2017-10-02T05:49:36.502Z,1011
2017-10-02T05:50:59.002Z,1010.97
2017-10-02T05:52:20.833Z,1010.95
2017-10-02T05:53:42.653Z,1010.91
2017-10-02T05:55:04.473Z,1010.99
2017-10-02T05:56:26.263Z,1010.92
2017-10-02T05:57:48.402Z,1010.99
2017-10-02T05:59:10.543Z,1010.89
2017-10-02T06:00:32.374Z,1010.91
2017-10-02T06:01:54.123Z,1010.89
2017-10-02T06:03:15.604Z,1010.85
2017-10-02T06:04:37.763Z,1010.88
2017-10-02T06:05:59.940Z,1010.87
2017-10-02T06:07:22.137Z,1010.88
2017-10-02T06:08:43.974Z,1010.89
2017-10-02T06:10:06.113Z,1010.91
2017-10-02T06:11:27.930Z,1010.87
2017-10-02T06:12:50.414Z,1010.88
2017-10-02T06:14:12.545Z,1010.86
2017-10-02T06:15:34.389Z,1010.86
2017-10-02T06:16:55.942Z,1010.84
2017-10-02T06:18:18.742Z,1010.76
2017-10-02T06:19:40.583Z,1010.77
2017-10-02T06:21:02.392Z,1010.72
2017-10-02T06:22:24.527Z,1010.73
2017-10-02T06:23:46.668Z,1010.72
2017-10-02T06:25:09.125Z,1010.66
2017-10-02T06:26:31.304Z,1010.72
2017-10-02T06:27:53.433Z,1010.72
2017-10-02T06:29:15.944Z,1010.66
2017-10-02T06:30:38.438Z,1010.67
2017-10-02T06:32:00.603Z,1010.63
2017-10-02T06:33:22.134Z,1010.67
2017-10-02T06:34:44.271Z,1010.73
2017-10-02T06:36:06.728Z,1010.69
2017-10-02T06:37:28.730Z,1010.69
2017-10-02T06:38:50.966Z,1010.68
2017-10-02T06:40:13.455Z,1010.74
2017-10-02T06:41:35.604Z,1010.74
2017-10-02T06:42:57.733Z,1010.7
2017-10-02T06:44:19.863Z,1010.66
2017-10-02T06:45:41.934Z,1010.69
2017-10-02T06:47:03.744Z,1010.71
2017-10-02T06:48:25.253Z,1010.69
2017-10-02T06:49:47.383Z,1010.69
2017-10-02T06:51:09.385Z,1010.68
2017-10-02T06:52:31.531Z,1010.66
2017-10-02T06:53:53.683Z,1010.64
2017-10-02T06:55:15.546Z,1010.61
2017-10-02T06:56:38.053Z,1010.65
2017-10-02T06:58:00.191Z,1010.65
2017-10-02T06:59:22.063Z,1010.68
2017-10-02T07:00:43.906Z,1010.68
2017-10-02T07:02:06.054Z,1010.66
2017-10-02T07:03:28.174Z,1010.68
2017-10-02T07:04:49.674Z,1010.67
2017-10-02T07:06:11.520Z,1010.61
2017-10-02T07:07:33.744Z,1010.6
2017-10-02T07:08:56.312Z,1010.55
2017-10-02T07:10:18.170Z,1010.65
2017-10-02T07:11:40.643Z,1010.63
2017-10-02T07:13:03.471Z,1010.67
2017-10-02T07:14:25.604Z,1010.67
2017-10-02T07:15:48.063Z,1010.68
2017-10-02T07:17:09.883Z,1010.68
2017-10-02T07:18:31.414Z,1010.65
2017-10-02T07:19:53.683Z,1010.65
2017-10-02T07:21:16.167Z,1010.62
2017-10-02T07:22:37.675Z,1010.64
2017-10-02T07:24:00.486Z,1010.62
2017-10-02T07:25:22.631Z,1010.58
2017-10-02T07:26:44.767Z,1010.6
2017-10-02T07:28:06.594Z,1010.57
2017-10-02T07:29:28.103Z,1010.53
2017-10-02T07:30:49.925Z,1010.58
2017-10-02T07:32:11.743Z,1010.57
2017-10-02T07:33:33.235Z,1010.53
2017-10-02T07:34:55.424Z,1010.54
2017-10-02T07:36:17.244Z,1010.53
2017-10-02T07:37:39.743Z,1010.52
2017-10-02T07:39:02.223Z,1010.54
2017-10-02T07:40:24.733Z,1010.48
2017-10-02T07:41:46.873Z,1010.49
2017-10-02T07:43:08.364Z,1010.46
2017-10-02T07:44:30.823Z,1010.4
2017-10-02T07:45:53.368Z,1010.46
2017-10-02T07:47:14.967Z,1010.45
2017-10-02T07:48:37.423Z,1010.41
2017-10-02T07:49:59.572Z,1010.49
2017-10-02T07:51:21.714Z,1010.47
2017-10-02T07:52:44.176Z,1010.45
2017-10-02T07:54:06.318Z,1010.48
2017-10-02T07:55:28.154Z,1010.46
2017-10-02T07:56:50.214Z,1010.48
2017-10-02T07:58:12.685Z,1010.47
2017-10-02T07:59:35.172Z,1010.47
2017-10-02T08:00:57.632Z,1010.46
2017-10-02T08:02:19.268Z,1010.42
2017-10-02T08:03:41.463Z,1010.43
2017-10-02T08:05:02.703Z,1010.35
2017-10-02T08:06:24.647Z,1010.36
2017-10-02T08:07:47.222Z,1010.34
2017-10-02T08:09:08.733Z,1010.38
2017-10-02T08:10:31.220Z,1010.35
2017-10-02T08:11:53.366Z,1010.38
2017-10-02T08:13:15.863Z,1010.39
2017-10-02T08:14:38.021Z,1010.34
2017-10-02T08:15:59.913Z,1010.4
2017-10-02T08:17:22.055Z,1010.38
2017-10-02T08:18:44.125Z,1010.38
2017-10-02T08:20:06.605Z,1010.39
2017-10-02T08:21:29.065Z,1010.36
2017-10-02T08:22:51.277Z,1010.33
2017-10-02T08:24:13.762Z,1010.38
2017-10-02T08:25:35.655Z,1010.35
2017-10-02T08:26:57.480Z,1010.41
2017-10-02T08:28:19.678Z,1010.38
2017-10-02T08:29:41.863Z,1010.31
2017-10-02T08:31:03.682Z,1010.29
2017-10-02T08:32:25.834Z,1010.34
2017-10-02T08:33:48.294Z,1010.42
2017-10-02T08:35:09.856Z,1010.41
2017-10-02T08:36:32.374Z,1010.44
2017-10-02T08:37:54.524Z,1010.42
2017-10-02T08:39:16.765Z,1010.43
2017-10-02T08:40:39.550Z,1010.37
2017-10-02T08:42:02.134Z,1010.3
2017-10-02T08:43:23.965Z,1010.33
2017-10-02T08:44:46.196Z,1010.42
2017-10-02T08:46:08.404Z,1010.44
2017-10-02T08:47:30.236Z,1010.36
2017-10-02T08:48:52.750Z,1010.36
2017-10-02T08:50:15.217Z,1010.41
2017-10-02T08:51:37.603Z,1010.42
2017-10-02T08:52:59.766Z,1010.45
2017-10-02T08:54:22.261Z,1010.41
2017-10-02T08:55:44.745Z,1010.4
2017-10-02T08:57:06.883Z,1010.39
2017-10-02T08:58:29.085Z,1010.46
2017-10-02T08:59:51.316Z,1010.56
2017-10-02T09:01:13.224Z,1010.52
2017-10-02T09:02:35.142Z,1010.56
2017-10-02T09:03:56.980Z,1010.58
2017-10-02T09:05:19.134Z,1010.52
2017-10-02T09:06:41.592Z,1010.55
2017-10-02T09:08:04.161Z,1010.47
2017-10-02T09:09:26.314Z,1010.49
2017-10-02T09:10:48.473Z,1010.43
2017-10-02T09:12:10.623Z,1010.38
2017-10-02T09:13:33.104Z,1010.39
2017-10-02T09:14:54.947Z,1010.36
2017-10-02T09:16:17.087Z,1010.45
2017-10-02T09:17:39.602Z,1010.35
2017-10-02T09:19:02.080Z,1010.35
2017-10-02T09:20:24.288Z,1010.46
2017-10-02T09:21:46.766Z,1010.47
2017-10-02T09:23:08.944Z,1010.43
2017-10-02T09:24:31.767Z,1010.46
2017-10-02T09:25:53.934Z,1010.42
2017-10-02T09:27:16.415Z,1010.38
2017-10-02T09:28:38.596Z,1010.35
2017-10-02T09:30:01.095Z,1010.29
2017-10-02T09:31:22.914Z,1010.29
2017-10-02T09:32:44.713Z,1010.26
2017-10-02T09:34:06.583Z,1010.28
2017-10-02T09:35:29.045Z,1010.34
2017-10-02T09:36:51.525Z,1010.31
2017-10-02T09:38:14.074Z,1010.32
2017-10-02T09:39:35.914Z,1010.29
2017-10-02T09:40:58.442Z,1010.32
2017-10-02T09:42:20.927Z,1010.27
2017-10-02T09:43:42.793Z,1010.25
2017-10-02T09:45:05.000Z,1010.21
2017-10-02T09:46:27.522Z,1010.3
2017-10-02T09:47:49.705Z,1010.24
2017-10-02T09:49:11.850Z,1010.25
2017-10-02T09:50:33.684Z,1010.22
2017-10-02T09:51:55.550Z,1010.17
2017-10-02T09:53:17.063Z,1010.11
2017-10-02T09:54:38.926Z,1010.16
2017-10-02T09:56:01.410Z,1010.14
2017-10-02T09:57:23.576Z,1010.12
2017-10-02T09:58:45.434Z,1010.13
2017-10-02T10:00:07.305Z,1010.21
2017-10-02T10:01:29.864Z,1010.23
2017-10-02T10:02:51.806Z,1010.28
2017-10-02T10:04:13.948Z,1010.29
2017-10-02T10:05:36.559Z,1010.32
2017-10-02T10:06:58.169Z,1010.36
2017-10-02T10:08:20.338Z,1010.37
2017-10-02T10:09:42.487Z,1010.4
2017-10-02T10:11:04.954Z,1010.44
2017-10-02T10:12:27.453Z,1010.43
2017-10-02T10:13:50.341Z,1010.44
2017-10-02T10:15:12.829Z,1010.39
2017-10-02T10:16:35.326Z,1010.39
2017-10-02T10:17:57.829Z,1010.39
2017-10-02T10:19:20.674Z,1010.41
2017-10-02T10:20:42.855Z,1010.43
2017-10-02T10:22:05.084Z,1010.49
2017-10-02T10:23:27.212Z,1010.49
2017-10-02T10:24:49.032Z,1010.5
2017-10-02T10:26:10.966Z,1010.52
2017-10-02T10:27:33.438Z,1010.47
2017-10-02T10:28:55.281Z,1010.44
2017-10-02T10:30:17.800Z,1010.53
2017-10-02T10:31:39.753Z,1010.51
2017-10-02T10:33:00.941Z,1010.49
2017-10-02T10:34:22.785Z,1010.47
2017-10-02T10:35:45.438Z,1010.48
2017-10-02T10:37:07.936Z,1010.44
2017-10-02T10:38:30.093Z,1010.4
2017-10-02T10:39:52.339Z,1010.4
2017-10-02T10:41:15.365Z,1010.39
2017-10-02T10:42:37.203Z,1010.43
2017-10-02T10:43:59.651Z,1010.33
2017-10-02T10:45:21.485Z,1010.36
2017-10-02T10:46:43.665Z,1010.41
2017-10-02T10:48:05.513Z,1010.32
2017-10-02T10:49:27.333Z,1010.36
2017-10-02T10:50:49.222Z,1010.43
2017-10-02T10:52:12.063Z,1010.37
2017-10-02T10:53:34.234Z,1010.28
2017-10-02T10:54:56.404Z,1010.3
2017-10-02T10:56:18.874Z,1010.31
2017-10-02T10:57:41.633Z,1010.42
2017-10-02T10:59:03.999Z,1010.43
2017-10-02T11:00:25.514Z,1010.46
2017-10-02T11:01:47.349Z,1010.41
2017-10-02T11:03:09.622Z,1010.44
2017-10-02T11:04:32.079Z,1010.42
2017-10-02T11:05:53.893Z,1010.45
2017-10-02T11:07:16.119Z,1010.34
2017-10-02T11:08:37.948Z,1010.35
2017-10-02T11:09:59.802Z,1010.44
2017-10-02T11:11:22.256Z,1010.43
2017-10-02T11:12:43.766Z,1010.47
2017-10-02T11:14:06.675Z,1010.41
2017-10-02T11:15:29.468Z,1010.48
2017-10-02T11:16:51.635Z,1010.45
2017-10-02T11:18:14.098Z,1010.49
2017-10-02T11:19:35.911Z,1010.42
2017-10-02T11:20:58.140Z,1010.45
2017-10-02T11:22:19.641Z,1010.46
2017-10-02T11:23:41.488Z,1010.48
2017-10-02T11:25:04.071Z,1010.45
2017-10-02T11:26:26.234Z,1010.45
2017-10-02T11:27:48.731Z,1010.47
2017-10-02T11:29:10.547Z,1010.43
2017-10-02T11:30:33.018Z,1010.39
2017-10-02T11:31:55.173Z,1010.48
2017-10-02T11:33:17.760Z,1010.46
2017-10-02T11:34:39.586Z,1010.48
2017-10-02T11:36:02.081Z,1010.45
2017-10-02T11:37:24.228Z,1010.45
2017-10-02T11:38:46.099Z,1010.49
2017-10-02T11:40:08.564Z,1010.44
2017-10-02T11:41:31.182Z,1010.4
2017-10-02T11:42:53.114Z,1010.38
2017-10-02T11:44:15.606Z,1010.3
2017-10-02T11:45:37.754Z,1010.33
2017-10-02T11:47:00.213Z,1010.45
2017-10-02T11:48:22.699Z,1010.47
2017-10-02T11:49:44.513Z,1010.42
2017-10-02T11:51:06.357Z,1010.44
2017-10-02T11:52:28.541Z,1010.5
2017-10-02T11:53:50.783Z,1010.56
2017-10-02T11:55:12.608Z,1010.55
2017-10-02T11:56:35.123Z,1010.51
2017-10-02T11:57:57.533Z,1010.5
2017-10-02T11:59:20.045Z,1010.53
2017-10-02T12:00:42.577Z,1010.5
2017-10-02T12:02:04.771Z,1010.48
2017-10-02T12:03:27.608Z,1010.51
2017-10-02T12:04:50.081Z,1010.52
2017-10-02T12:06:12.557Z,1010.49
2017-10-02T12:07:34.752Z,1010.52
2017-10-02T12:08:56.603Z,1010.55
2017-10-02T12:10:19.096Z,1010.5
2017-10-02T12:11:40.933Z,1010.53
2017-10-02T12:13:03.086Z,1010.59
2017-10-02T12:14:25.540Z,1010.62
2017-10-02T12:15:47.375Z,1010.6
2017-10-02T12:17:09.892Z,1010.62
2017-10-02T12:18:31.404Z,1010.59
2017-10-02T12:19:53.565Z,1010.62
2017-10-02T12:21:15.416Z,1010.56
2017-10-02T12:22:37.165Z,1010.54
2017-10-02T12:23:59.653Z,1010.53
2017-10-02T12:25:21.794Z,1010.51
2017-10-02T12:26:43.953Z,1010.56
2017-10-02T12:28:06.116Z,1010.52
2017-10-02T12:29:28.264Z,1010.43
2017-10-02T12:30:50.141Z,1010.43
2017-10-02T12:32:12.292Z,1010.52
2017-10-02T12:33:33.924Z,1010.59
2017-10-02T12:34:55.767Z,1010.57
2017-10-02T12:36:18.355Z,1010.48
2017-10-02T12:37:40.233Z,1010.53
2017-10-02T12:39:02.377Z,1010.46
2017-10-02T12:40:24.220Z,1010.35
2017-10-02T12:41:46.391Z,1010.47
2017-10-02T12:43:08.576Z,1010.48
2017-10-02T12:44:30.103Z,1010.48
2017-10-02T12:45:52.573Z,1010.46
2017-10-02T12:47:14.454Z,1010.46
2017-10-02T12:48:36.931Z,1010.4
2017-10-02T12:49:59.409Z,1010.42
2017-10-02T12:51:21.664Z,1010.54
2017-10-02T12:52:43.779Z,1010.56
2017-10-02T12:54:05.307Z,1010.57
2017-10-02T12:55:27.271Z,1010.47
2017-10-02T12:56:49.543Z,1010.42
2017-10-02T12:58:12.303Z,1010.39
2017-10-02T12:59:34.129Z,1010.39
2017-10-02T13:00:55.959Z,1010.44
2017-10-02T13:02:18.103Z,1010.53
2017-10-02T13:03:39.658Z,1010.5
2017-10-02T13:05:01.496Z,1010.46
2017-10-02T13:06:23.844Z,1010.42
2017-10-02T13:07:46.341Z,1010.36
2017-10-02T13:09:08.996Z,1010.4
2017-10-02T13:10:31.604Z,1010.37
2017-10-02T13:11:54.086Z,1010.39
2017-10-02T13:13:15.926Z,1010.44
2017-10-02T13:14:38.778Z,1010.34
2017-10-02T13:16:00.707Z,1010.34
2017-10-02T13:17:22.535Z,1010.4
2017-10-02T13:18:44.675Z,1010.44
2017-10-02T13:20:06.494Z,1010.46
2017-10-02T13:21:28.953Z,1010.34
2017-10-02T13:22:51.116Z,1010.4
2017-10-02T13:24:13.293Z,1010.4
2017-10-02T13:25:35.796Z,1010.4
2017-10-02T13:26:57.635Z,1010.38
2017-10-02T13:28:19.274Z,1010.4
2017-10-02T13:29:41.717Z,1010.34
2017-10-02T13:31:03.875Z,1010.29
2017-10-02T13:32:25.738Z,1010.29
2017-10-02T13:33:47.564Z,1010.35
2017-10-02T13:35:09.714Z,1010.33
2017-10-02T13:36:32.294Z,1010.27
2017-10-02T13:37:54.252Z,1010.23
2017-10-02T13:39:16.063Z,1010.2
2017-10-02T13:40:37.909Z,1010.22
2017-10-02T13:42:00.154Z,1010.22
2017-10-02T13:43:22.303Z,1010.21
2017-10-02T13:44:44.466Z,1010.22
2017-10-02T13:46:06.954Z,1010.23
2017-10-02T13:47:29.858Z,1010.15
2017-10-02T13:48:52.353Z,1010.13
2017-10-02T13:50:14.824Z,1010.12
2017-10-02T13:51:36.668Z,1010.2
2017-10-02T13:52:58.506Z,1010.18
2017-10-02T13:54:20.981Z,1010.22
2017-10-02T13:55:43.502Z,1010.16
2017-10-02T13:57:05.033Z,1010.13
2017-10-02T13:58:27.247Z,1010.06
2017-10-02T13:59:49.816Z,1010.18
2017-10-02T14:01:12.305Z,1010.21
2017-10-02T14:02:34.137Z,1010.23
2017-10-02T14:03:56.286Z,1010.3
2017-10-02T14:05:18.254Z,1010.29
2017-10-02T14:06:40.436Z,1010.25
2017-10-02T14:08:02.273Z,1010.31
2017-10-02T14:09:24.414Z,1010.25
2017-10-02T14:10:46.903Z,1010.31
2017-10-02T14:12:09.405Z,1010.33
2017-10-02T14:13:31.574Z,1010.24
2017-10-02T14:14:53.115Z,1010.14
2017-10-02T14:16:15.589Z,1010.2
2017-10-02T14:17:37.731Z,1010.17
2017-10-02T14:18:59.877Z,1010.15
2017-10-02T14:20:21.405Z,1010.01
2017-10-02T14:21:43.233Z,1010.15
2017-10-02T14:23:05.733Z,1010.17
2017-10-02T14:24:27.582Z,1010.21
2017-10-02T14:25:49.745Z,1010.21
2017-10-02T14:27:11.571Z,1010.12
2017-10-02T14:28:33.931Z,1010.12
2017-10-02T14:29:56.414Z,1010.08
2017-10-02T14:31:18.904Z,1010.1
2017-10-02T14:32:41.083Z,1010.09
2017-10-02T14:34:02.572Z,1010.09
2017-10-02T14:35:24.738Z,1010.14
2017-10-02T14:36:46.916Z,1010.13
2017-10-02T14:38:08.752Z,1010.13
2017-10-02T14:39:31.243Z,1010.25
2017-10-02T14:40:53.723Z,1010.27
2017-10-02T14:42:15.613Z,1010.28
2017-10-02T14:43:37.464Z,1010.37
2017-10-02T14:44:59.642Z,1010.35
2017-10-02T14:46:21.801Z,1010.39
2017-10-02T14:47:44.633Z,1010.37
2017-10-02T14:49:07.219Z,1010.44
2017-10-02T14:50:29.417Z,1010.49
2017-10-02T14:51:50.934Z,1010.48
2017-10-02T14:53:13.135Z,1010.55
2017-10-02T14:54:35.730Z,1010.6
2017-10-02T14:55:57.933Z,1010.68
2017-10-02T14:57:19.846Z,1010.61
2017-10-02T14:58:42.184Z,1010.6
2017-10-02T15:00:04.343Z,1010.55
2017-10-02T15:01:26.232Z,1010.48
2017-10-02T15:02:48.457Z,1010.44
2017-10-02T15:04:10.674Z,1010.32
2017-10-02T15:05:32.834Z,1010.28
2017-10-02T15:06:55.002Z,1010.29
2017-10-02T15:08:16.858Z,1010.4
2017-10-02T15:09:39.673Z,1010.5
2017-10-02T15:11:01.865Z,1010.53
2017-10-02T15:12:24.338Z,1010.55
2017-10-02T15:13:46.826Z,1010.49
2017-10-02T15:15:09.305Z,1010.38
2017-10-02T15:16:31.512Z,1010.31
2017-10-02T15:17:53.004Z,1010.3
2017-10-02T15:19:15.169Z,1010.33
2017-10-02T15:20:37.860Z,1010.39
2017-10-02T15:22:00.003Z,1010.41
2017-10-02T15:23:21.913Z,1010.4
2017-10-02T15:24:44.394Z,1010.49
2017-10-02T15:26:06.924Z,1010.42
2017-10-02T15:27:29.125Z,1010.44
2017-10-02T15:28:50.696Z,1010.41
2017-10-02T15:30:12.595Z,1010.41
2017-10-02T15:31:35.513Z,1010.41
2017-10-02T15:32:57.111Z,1010.43
2017-10-02T15:34:19.717Z,1010.4
2017-10-02T15:35:41.888Z,1010.37
2017-10-02T15:37:04.495Z,1010.43
2017-10-02T15:38:26.326Z,1010.48
2017-10-02T15:39:48.902Z,1010.55
2017-10-02T15:41:11.375Z,1010.59
2017-10-02T15:42:33.913Z,1010.63
2017-10-02T15:43:56.403Z,1010.59
2017-10-02T15:45:18.853Z,1010.66
2017-10-02T15:46:41.005Z,1010.65
2017-10-02T15:48:03.472Z,1010.69
2017-10-02T15:49:25.623Z,1010.61
2017-10-02T15:50:47.770Z,1010.6
2017-10-02T15:52:10.255Z,1010.59
2017-10-02T15:53:33.151Z,1010.54
2017-10-02T15:54:54.673Z,1010.46
2017-10-02T15:56:16.814Z,1010.49
2017-10-02T15:57:39.292Z,1010.55
2017-10-02T15:59:02.302Z,1010.61
2017-10-02T16:00:24.123Z,1010.58
2017-10-02T16:01:46.266Z,1010.51
2017-10-02T16:03:08.759Z,1010.5
2017-10-02T16:04:31.307Z,1010.61
2017-10-02T16:05:53.801Z,1010.67
2017-10-02T16:07:15.323Z,1010.68
2017-10-02T16:08:37.158Z,1010.66
2017-10-02T16:09:59.986Z,1010.69
2017-10-02T16:11:22.146Z,1010.67
2017-10-02T16:12:44.643Z,1010.71
2017-10-02T16:14:06.794Z,1010.71
2017-10-02T16:15:29.715Z,1010.71
2017-10-02T16:16:51.868Z,1010.73
2017-10-02T16:18:13.739Z,1010.76
2017-10-02T16:19:34.946Z,1010.74
2017-10-02T16:20:56.766Z,1010.75
2017-10-02T16:22:18.595Z,1010.75
2017-10-02T16:23:40.831Z,1010.76
2017-10-02T16:25:03.320Z,1010.78
2017-10-02T16:26:25.173Z,1010.66
2017-10-02T16:27:46.999Z,1010.64
2017-10-02T16:29:08.822Z,1010.67
2017-10-02T16:30:30.132Z,1010.55
2017-10-02T16:31:52.274Z,1010.55
2017-10-02T16:33:14.765Z,1010.57
2017-10-02T16:34:36.611Z,1010.62
2017-10-02T16:35:58.743Z,1010.62
2017-10-02T16:37:20.904Z,1010.65